Time;durP1;ratioP1;P1;durP2;ratioP2;P2;SDS_P1;SDS_P2;PMS_P1;PMS_P2;Temp;Humidity;BMP_temperature;BMP_pressure;BME280_temperature;BME280_humidity;BME280_pressure;Samples;Min_cycle;Max_cycle;Signal;HPM_P1;HPM_P2
2023/09/12 00:01:38;;;;;;;13.82;10.02;;;25.50;54.70;;;;;;5000801;28;20057;-49
2023/09/12 00:04:06;;;;;;;18.27;11.10;;;25.50;54.70;;;;;;5000009;28;20054;-49
2023/09/12 00:06:33;;;;;;;14.98;9.98;;;25.50;54.70;;;;;;4995739;28;20049;-53
2023/09/12 00:09:00;;;;;;;15.07;10.82;;;25.40;54.70;;;;;;5000485;28;20062;-49
2023/09/12 00:11:27;;;;;;;26.40;11.23;;;25.40;54.70;;;;;;5000051;28;20053;-51
2023/09/12 00:13:54;;;;;;;15.85;11.07;;;25.40;54.80;;;;;;5000570;28;20049;-50
2023/09/12 00:16:23;;;;;;;16.90;11.45;;;25.40;54.90;;;;;;5000110;28;20058;-51
2023/09/12 00:18:50;;;;;;;14.57;10.32;;;25.40;54.90;;;;;;4998902;28;20061;-50
2023/09/12 00:21:17;;;;;;;16.75;11.45;;;25.40;55.00;;;;;;4999276;28;20076;-45
2023/09/12 00:23:45;;;;;;;18.55;10.98;;;25.40;55.00;;;;;;4993973;28;20061;-47
2023/09/12 00:26:12;;;;;;;17.17;11.63;;;25.30;55.00;;;;;;4999906;28;20064;-51
2023/09/12 00:28:40;;;;;;;17.33;10.65;;;25.30;55.00;;;;;;4999934;28;20065;-52
2023/09/12 00:31:07;;;;;;;16.88;11.27;;;25.30;55.10;;;;;;4998261;28;20054;-53
2023/09/12 00:33:36;;;;;;;19.20;11.82;;;25.30;55.20;;;;;;4999629;28;20054;-54
2023/09/12 00:36:03;;;;;;;16.70;11.35;;;25.30;55.30;;;;;;4997579;28;20050;-50
2023/09/12 00:38:30;;;;;;;17.65;12.82;;;25.20;55.30;;;;;;4995497;28;20050;-52
2023/09/12 00:40:57;;;;;;;17.90;11.35;;;25.30;55.50;;;;;;5000102;28;20064;-50
2023/09/12 00:43:25;;;;;;;21.13;10.80;;;25.20;55.30;;;;;;4999699;28;20042;-51
2023/09/12 00:45:52;;;;;;;17.42;11.25;;;25.20;55.40;;;;;;4998338;28;20050;-54
2023/09/12 00:48:21;;;;;;;15.32;11.65;;;25.20;55.40;;;;;;5000686;28;20053;-53
2023/09/12 00:50:52;;;;;;;18.15;11.82;;;25.20;56.00;;;;;;5002633;28;20058;-52
2023/09/12 00:53:20;;;;;;;17.38;11.65;;;25.20;55.60;;;;;;5000508;28;20513;-52
2023/09/12 00:55:53;;;;;;;17.38;12.13;;;25.10;55.50;;;;;;5001988;28;20514;-49
2023/09/12 00:58:21;;;;;;;19.42;12.10;;;25.20;55.60;;;;;;5003808;28;20399;-50
2023/09/12 01:00:48;;;;;;;16.38;11.57;;;25.10;55.50;;;;;;5001758;28;20050;-56
2023/09/12 01:03:15;;;;;;;15.90;10.30;;;25.10;55.60;;;;;;4992842;23;20046;-94
2023/09/12 01:05:44;;;;;;;16.63;9.88;;;25.10;55.60;;;;;;4979886;28;20065;-90
2023/09/12 01:08:12;;;;;;;16.25;11.30;;;25.10;55.60;;;;;;4978124;28;20065;-93
2023/09/12 01:10:46;;;;;;;19.40;11.57;;;25.00;55.60;;;;;;4982286;28;20058;-91
2023/09/12 01:13:14;;;;;;;18.23;11.40;;;25.00;55.60;;;;;;4981963;28;20621;-93
2023/09/12 01:15:43;;;;;;;18.92;11.45;;;25.00;55.50;;;;;;4980244;28;20050;-90
2023/09/12 01:18:11;;;;;;;18.90;11.48;;;25.00;55.60;;;;;;4979922;28;20065;-90
2023/09/12 01:20:42;;;;;;;16.17;10.35;;;25.00;55.60;;;;;;4981178;28;20061;-92
2023/09/12 01:23:21;;;;;;;18.13;11.00;;;24.90;55.50;;;;;;4980222;28;20050;-94
2023/09/12 01:26:18;;;;;;;16.38;10.90;;;24.90;55.60;;;;;;4981504;28;20059;-92
2023/09/12 01:28:48;;;;;;;17.33;11.32;;;24.90;55.70;;;;;;4982744;28;20624;-92
2023/09/12 01:31:17;;;;;;;16.98;11.13;;;24.90;55.70;;;;;;4978940;28;20671;-93
2023/09/12 01:33:44;;;;;;;22.83;11.05;;;24.80;55.60;;;;;;4986738;28;20442;-90
2023/09/12 01:36:11;;;;;;;16.05;11.52;;;24.80;55.70;;;;;;4978710;28;20057;-90
2023/09/12 01:38:39;;;;;;;15.48;10.43;;;24.80;55.70;;;;;;4977114;28;20495;-90
2023/09/12 01:41:07;;;;;;;17.98;11.10;;;24.80;55.70;;;;;;4982007;28;20051;-92
2023/09/12 01:43:39;;;;;;;20.05;9.77;;;24.80;55.80;;;;;;4979962;28;20050;-90
2023/09/12 01:46:08;;;;;;;14.68;9.48;;;24.70;55.80;;;;;;4980666;28;20061;-93
2023/09/12 01:48:37;;;;;;;13.88;9.57;;;24.70;55.80;;;;;;4978741;28;20061;-93
2023/09/12 01:51:06;;;;;;;18.38;9.85;;;24.70;55.80;;;;;;4979397;28;20057;-94
2023/09/12 01:56:57;;;;;;;14.13;8.80;;;24.60;55.80;;;;;;4982236;28;20041;-94
2023/09/12 01:59:25;;;;;;;17.95;9.82;;;24.60;55.80;;;;;;4979194;28;20061;-94
2023/09/12 02:01:53;;;;;;;11.63;8.95;;;24.50;55.90;;;;;;4977919;28;20061;-94
2023/09/12 02:04:21;;;;;;;13.10;8.98;;;24.50;55.80;;;;;;4985634;28;20065;-93
2023/09/12 02:06:48;;;;;;;13.05;8.35;;;24.50;55.90;;;;;;4978478;28;20193;-94
2023/09/12 02:09:15;;;;;;;14.10;8.80;;;24.40;55.80;;;;;;4978346;28;20061;-91
2023/09/12 02:11:42;;;;;;;13.40;8.85;;;24.40;55.90;;;;;;4979765;28;20493;-91
2023/09/12 02:14:10;;;;;;;13.73;9.00;;;24.40;55.90;;;;;;4984102;28;20065;-91
2023/09/12 02:16:38;;;;;;;12.52;8.35;;;24.40;55.90;;;;;;4980426;28;20387;-91
2023/09/12 02:19:07;;;;;;;11.00;7.80;;;24.40;55.90;;;;;;4978370;28;20065;-90
2023/09/12 02:21:34;;;;;;;12.60;8.57;;;24.30;55.90;;;;;;4979862;28;20054;-91
2023/09/12 02:24:02;;;;;;;13.95;8.60;;;24.30;55.90;;;;;;4978293;28;20046;-90
2023/09/12 02:26:29;;;;;;;15.93;8.55;;;24.30;55.90;;;;;;4982790;28;20427;-90
2023/09/12 02:28:56;;;;;;;14.57;9.05;;;24.20;55.80;;;;;;4978183;28;20050;-91
2023/09/12 02:31:24;;;;;;;16.00;8.68;;;24.20;55.80;;;;;;4985696;28;20053;-90
2023/09/12 02:33:51;;;;;;;16.83;8.82;;;24.20;55.80;;;;;;4978899;28;20498;-90
2023/09/12 02:36:20;;;;;;;12.45;8.18;;;24.20;55.70;;;;;;4977787;28;20046;-89
2023/09/12 02:38:47;;;;;;;15.52;9.07;;;24.20;55.80;;;;;;4977029;28;20069;-90
2023/09/12 02:41:14;;;;;;;13.68;8.02;;;24.10;55.70;;;;;;4979368;28;20046;-90
2023/09/12 02:43:42;;;;;;;13.60;8.25;;;24.10;55.80;;;;;;4979372;28;20422;-89
2023/09/12 02:46:09;;;;;;;15.63;9.82;;;24.10;55.70;;;;;;4977872;28;20065;-90
2023/09/12 02:48:36;;;;;;;15.85;9.55;;;24.00;55.80;;;;;;4976905;28;20069;-90
2023/09/12 02:51:04;;;;;;;16.20;10.13;;;24.00;55.80;;;;;;4977662;28;20054;-90
2023/09/12 02:53:32;;;;;;;16.30;9.50;;;24.00;55.80;;;;;;4977806;28;20050;-90
2023/09/12 02:55:59;;;;;;;16.90;10.30;;;23.90;55.80;;;;;;4975684;28;20057;-91
2023/09/12 02:58:27;;;;;;;14.55;9.88;;;23.90;55.90;;;;;;4978516;28;20055;-90
2023/09/12 03:00:54;;;;;;;13.75;9.57;;;23.90;56.00;;;;;;4978775;28;20054;-90
2023/09/12 03:03:21;;;;;;;15.50;9.27;;;23.80;56.00;;;;;;4979030;28;20062;-90
2023/09/12 03:05:57;;;;;;;15.23;9.77;;;23.80;56.00;;;;;;4972724;28;20061;-89
2023/09/12 03:08:24;;;;;;;18.13;9.55;;;23.70;56.10;;;;;;4979333;28;20054;-91
2023/09/12 03:10:56;;;;;;;13.45;8.75;;;23.70;56.10;;;;;;4977976;28;20096;-89
2023/09/12 03:13:25;;;;;;;16.30;10.27;;;23.70;56.20;;;;;;4980012;28;20065;-90
2023/09/12 03:18:22;;;;;;;16.48;10.63;;;23.60;56.30;;;;;;4981105;28;20054;-61
2023/09/12 03:20:49;;;;;;;16.38;9.35;;;23.60;56.40;;;;;;4980838;28;20062;-50
2023/09/12 03:23:16;;;;;;;11.52;8.43;;;23.60;56.50;;;;;;4981962;28;20062;-49
2023/09/12 03:25:44;;;;;;;17.83;9.95;;;23.60;56.50;;;;;;4977801;28;20521;-47
2023/09/12 03:28:12;;;;;;;19.00;9.32;;;23.50;56.50;;;;;;4978569;28;20058;-51
2023/09/12 03:30:40;;;;;;;14.65;9.13;;;23.50;56.60;;;;;;4977860;28;20058;-51
2023/09/12 03:33:07;;;;;;;14.30;8.80;;;23.50;56.60;;;;;;4979242;28;20057;-48
2023/09/12 03:35:34;;;;;;;14.30;9.15;;;23.50;56.70;;;;;;4975099;28;20647;-48
2023/09/12 03:38:02;;;;;;;16.75;9.60;;;23.50;56.70;;;;;;4978547;28;20046;-49
2023/09/12 03:40:30;;;;;;;15.98;9.32;;;23.50;56.80;;;;;;4979602;28;20504;-53
2023/09/12 03:42:57;;;;;;;15.32;9.75;;;23.40;56.80;;;;;;4978804;28;20494;-50
2023/09/12 03:45:26;;;;;;;14.43;9.35;;;23.40;56.90;;;;;;4977565;28;20513;-51
2023/09/12 03:47:54;;;;;;;14.27;9.57;;;23.40;56.90;;;;;;4976782;28;20058;-50
2023/09/12 03:50:21;;;;;;;16.17;9.25;;;23.40;57.00;;;;;;4979378;28;20050;-52
2023/09/12 03:52:48;;;;;;;18.52;10.43;;;23.40;57.00;;;;;;4978819;28;20066;-48
2023/09/12 03:55:16;;;;;;;15.18;9.80;;;23.40;57.00;;;;;;4974943;28;20061;-51
2023/09/12 03:57:43;;;;;;;15.30;9.85;;;23.30;57.00;;;;;;4979317;28;20050;-50
2023/09/12 04:00:12;;;;;;;14.90;9.43;;;23.30;57.10;;;;;;4974277;28;20054;-51
2023/09/12 04:02:41;;;;;;;16.48;10.60;;;23.30;57.10;;;;;;4966794;28;20050;-53
2023/09/12 04:05:09;;;;;;;14.77;10.88;;;23.30;57.20;;;;;;4956933;28;20047;-55
2023/09/12 04:07:36;;;;;;;16.95;10.32;;;23.20;57.10;;;;;;4959920;28;20051;-49
2023/09/12 04:10:03;;;;;;;16.77;10.93;;;23.20;57.20;;;;;;4959505;28;20410;-52
2023/09/12 04:12:31;;;;;;;18.20;11.07;;;23.20;57.20;;;;;;4959334;28;20062;-50
2023/09/12 04:14:58;;;;;;;14.45;10.15;;;23.20;57.30;;;;;;4960414;28;20469;-51
2023/09/12 04:17:25;;;;;;;14.10;10.52;;;23.20;57.30;;;;;;4967354;28;20051;-51
2023/09/12 04:19:54;;;;;;;15.05;10.40;;;23.10;57.30;;;;;;4976889;28;20994;-51
2023/09/12 04:22:21;;;;;;;17.08;11.32;;;23.10;57.40;;;;;;4977110;28;20050;-55
2023/09/12 04:24:48;;;;;;;15.30;9.90;;;23.10;57.40;;;;;;4973797;28;20089;-50
2023/09/12 04:27:16;;;;;;;19.67;10.80;;;23.10;57.40;;;;;;4977199;28;20058;-49
2023/09/12 04:29:45;;;;;;;20.75;11.20;;;23.00;57.50;;;;;;4982128;28;20525;-50
2023/09/12 04:32:12;;;;;;;14.15;9.68;;;23.00;57.60;;;;;;4983131;28;20557;-61
2023/09/12 04:34:43;;;;;;;14.63;9.43;;;23.00;57.60;;;;;;4978500;28;20387;-61
2023/09/12 04:37:12;;;;;;;14.32;9.20;;;23.00;57.70;;;;;;4974838;28;20054;-61
2023/09/12 04:39:39;;;;;;;13.15;9.02;;;23.00;57.70;;;;;;4977933;28;20058;-61
2023/09/12 04:42:07;;;;;;;14.95;9.43;;;23.00;57.80;;;;;;4978440;28;20065;-61
2023/09/12 04:44:36;;;;;;;16.40;8.38;;;23.00;57.80;;;;;;4977543;28;20379;-61
2023/09/12 04:47:03;;;;;;;10.73;7.00;;;23.00;57.80;;;;;;4977225;28;20050;-61
2023/09/12 04:49:31;;;;;;;13.02;8.00;;;23.00;57.80;;;;;;4979676;28;20417;-59
2023/09/12 04:51:58;;;;;;;13.82;6.80;;;23.00;57.70;;;;;;4977155;28;20054;-62
2023/09/12 04:54:26;;;;;;;12.88;7.25;;;23.00;57.70;;;;;;4977757;28;20061;-57
2023/09/12 04:56:54;;;;;;;10.65;7.03;;;23.00;57.70;;;;;;4976930;28;20081;-62
2023/09/12 04:59:21;;;;;;;10.43;7.93;;;23.00;57.60;;;;;;4978155;28;20057;-58
2023/09/12 05:01:49;;;;;;;10.75;8.35;;;23.00;57.60;;;;;;4978513;28;20058;-62
2023/09/12 05:04:16;;;;;;;13.25;8.88;;;23.00;57.60;;;;;;4979858;28;20433;-62
2023/09/12 05:06:43;;;;;;;18.00;11.48;;;23.00;57.60;;;;;;4975955;28;20054;-61
2023/09/12 05:09:10;;;;;;;14.63;9.85;;;23.00;57.70;;;;;;4979347;28;20837;-60
2023/09/12 05:11:39;;;;;;;13.48;8.90;;;23.00;57.70;;;;;;4974237;28;20057;-60
2023/09/12 05:14:06;;;;;;;14.13;9.10;;;23.00;57.70;;;;;;4979466;28;20054;-59
2023/09/12 05:16:33;;;;;;;14.57;8.40;;;23.00;57.70;;;;;;4977752;28;20050;-62
2023/09/12 05:19:01;;;;;;;11.90;8.20;;;23.00;57.70;;;;;;4978920;28;20077;-62
2023/09/12 05:21:28;;;;;;;14.63;9.27;;;23.00;57.70;;;;;;4976993;28;20054;-62
2023/09/12 05:23:55;;;;;;;11.82;8.45;;;23.00;57.80;;;;;;4979532;28;20167;-62
2023/09/12 05:26:22;;;;;;;10.63;7.80;;;23.00;57.70;;;;;;4977978;28;20405;-58
2023/09/12 05:28:51;;;;;;;10.95;8.13;;;23.00;57.70;;;;;;4979166;28;20061;-62
2023/09/12 05:31:18;;;;;;;15.00;9.15;;;23.00;57.80;;;;;;4979136;28;20058;-62
2023/09/12 05:33:45;;;;;;;18.33;9.43;;;23.10;57.80;;;;;;4979289;28;20065;-63
2023/09/12 05:36:13;;;;;;;14.73;10.10;;;23.00;58.20;;;;;;4980290;28;20061;-62
2023/09/12 05:45:26;;;;;;;16.85;10.73;;;23.00;57.70;;;;;;5001576;28;20053;-61
2023/09/12 05:47:54;;;;;;;13.43;9.68;;;23.00;57.80;;;;;;4983006;28;20058;-58
2023/09/12 05:50:21;;;;;;;20.42;10.85;;;23.00;57.90;;;;;;4982663;28;20053;-56
2023/09/12 05:52:48;;;;;;;19.05;11.05;;;23.00;58.10;;;;;;4978368;28;20077;-61
2023/09/12 05:55:27;;;;;;;12.63;8.63;;;22.90;58.20;;;;;;4980778;28;20061;-61
2023/09/12 05:57:55;;;;;;;17.42;10.35;;;22.90;58.30;;;;;;4982654;28;20054;-62
2023/09/12 06:00:22;;;;;;;18.27;11.43;;;22.90;58.30;;;;;;4981414;28;20058;-61
2023/09/12 06:02:51;;;;;;;15.15;9.88;;;22.90;58.40;;;;;;4975566;28;20065;-62
2023/09/12 06:05:18;;;;;;;17.20;10.57;;;22.90;58.50;;;;;;4980086;28;20046;-57
2023/09/12 06:07:46;;;;;;;15.73;11.45;;;22.90;58.50;;;;;;4979457;28;20050;-60
2023/09/12 06:10:14;;;;;;;16.95;10.93;;;22.90;58.60;;;;;;4982592;28;20057;-62
2023/09/12 06:12:41;;;;;;;15.07;10.90;;;22.90;58.50;;;;;;4978178;28;20315;-62
2023/09/12 06:15:08;;;;;;;18.80;10.82;;;22.90;58.60;;;;;;4978352;28;20065;-61
2023/09/12 06:17:36;;;;;;;18.10;11.70;;;22.90;58.60;;;;;;4981035;28;20058;-62
2023/09/12 06:20:06;;;;;;;16.27;11.00;;;22.90;58.60;;;;;;4980317;28;20073;-62
2023/09/12 06:22:33;;;;;;;17.73;12.00;;;22.90;58.50;;;;;;4980537;28;20065;-62
2023/09/12 06:25:01;;;;;;;17.15;12.30;;;22.90;58.50;;;;;;4979445;28;20506;-62
2023/09/12 06:27:28;;;;;;;14.48;9.57;;;22.90;58.50;;;;;;4982928;28;20426;-62
2023/09/12 06:29:55;;;;;;;15.70;9.90;;;22.90;58.60;;;;;;4981248;28;20577;-56
2023/09/12 06:32:23;;;;;;;14.02;10.63;;;22.90;58.60;;;;;;4978531;28;20505;-58
2023/09/12 06:34:50;;;;;;;18.00;10.05;;;22.90;58.60;;;;;;4981646;28;20111;-58
2023/09/12 06:37:19;;;;;;;15.82;10.73;;;23.00;58.70;;;;;;4978756;28;20062;-60
2023/09/12 06:39:46;;;;;;;15.48;9.80;;;23.00;58.70;;;;;;4977166;28;20063;-62
2023/09/12 06:42:13;;;;;;;15.82;10.02;;;23.00;58.70;;;;;;4982205;28;20398;-62
2023/09/12 06:44:40;;;;;;;18.30;10.75;;;23.00;58.80;;;;;;4983797;28;20050;-62
2023/09/12 06:47:09;;;;;;;21.58;11.82;;;23.00;58.80;;;;;;4980647;28;20054;-62
2023/09/12 06:49:37;;;;;;;19.33;12.38;;;23.10;58.80;;;;;;4982552;28;20054;-62
2023/09/12 06:52:05;;;;;;;18.15;12.30;;;23.10;58.80;;;;;;4982564;28;20059;-51
2023/09/12 06:54:34;;;;;;;18.13;11.27;;;23.10;58.70;;;;;;4978016;28;20054;-55
2023/09/12 06:57:02;;;;;;;17.23;12.20;;;23.20;58.70;;;;;;4980784;28;20059;-50
2023/09/12 06:59:29;;;;;;;16.58;11.65;;;23.20;58.60;;;;;;4980963;28;20501;-51
2023/09/12 07:01:56;;;;;;;15.52;10.07;;;23.20;58.70;;;;;;4982427;28;20051;-50
2023/09/12 07:04:24;;;;;;;15.30;11.57;;;23.20;58.70;;;;;;4977564;28;20058;-49
2023/09/12 07:06:52;;;;;;;21.67;12.55;;;23.20;58.70;;;;;;4977729;28;20058;-54
2023/09/12 07:09:20;;;;;;;14.27;10.73;;;23.20;58.60;;;;;;4982033;28;20062;-56
2023/09/12 07:11:49;;;;;;;18.80;12.02;;;23.30;58.60;;;;;;4980659;28;20050;-52
2023/09/12 07:14:16;;;;;;;24.02;11.90;;;23.30;58.60;;;;;;4981729;28;20057;-48
2023/09/12 07:16:44;;;;;;;14.90;11.13;;;23.40;58.60;;;;;;4979378;28;20054;-51
2023/09/12 07:19:11;;;;;;;26.00;16.30;;;23.40;58.60;;;;;;4980408;28;20490;-51
2023/09/12 07:21:38;;;;;;;30.15;19.13;;;23.40;58.60;;;;;;4976497;28;20050;-53
2023/09/12 07:24:06;;;;;;;26.98;18.60;;;23.40;58.60;;;;;;4977590;28;20422;-53
2023/09/12 07:26:34;;;;;;;28.85;17.83;;;23.40;58.60;;;;;;4977564;28;20054;-50
2023/09/12 07:29:05;;;;;;;26.65;16.10;;;23.40;58.80;;;;;;4979096;28;20057;-49
2023/09/12 07:31:32;;;;;;;24.23;16.45;;;23.30;58.90;;;;;;4981204;28;20050;-53
2023/09/12 07:33:59;;;;;;;31.67;16.13;;;23.30;59.00;;;;;;4982222;28;20054;-52
2023/09/12 07:36:26;;;;;;;27.75;15.25;;;23.30;59.00;;;;;;4979514;28;20054;-53
2023/09/12 07:38:54;;;;;;;19.55;13.15;;;23.30;59.20;;;;;;4981657;28;20498;-50
2023/09/12 07:41:21;;;;;;;23.95;14.07;;;23.20;59.30;;;;;;4980819;28;20054;-56
2023/09/12 07:43:48;;;;;;;18.33;12.57;;;23.20;59.30;;;;;;4979332;28;20415;-49
2023/09/12 07:46:17;;;;;;;17.60;11.27;;;23.20;59.30;;;;;;4977592;28;20053;-51
2023/09/12 07:48:44;;;;;;;26.67;16.25;;;23.30;59.50;;;;;;4980593;28;20065;-54
2023/09/12 07:51:15;;;;;;;24.65;15.77;;;23.40;59.50;;;;;;4978387;28;20081;-53
2023/09/12 07:53:42;;;;;;;21.85;15.15;;;23.40;59.20;;;;;;4983044;28;20051;-54
2023/09/12 07:56:11;;;;;;;26.98;17.65;;;23.40;59.30;;;;;;4981404;28;20050;-53
2023/09/12 07:58:38;;;;;;;31.70;18.77;;;23.40;59.30;;;;;;4980798;28;20069;-50
2023/09/12 08:01:09;;;;;;;24.15;16.38;;;23.50;59.40;;;;;;4980870;28;20062;-63
2023/09/12 08:03:39;;;;;;;30.83;19.23;;;23.50;59.40;;;;;;4978909;28;20058;-61
2023/09/12 08:06:07;;;;;;;29.88;20.42;;;23.50;59.40;;;;;;4979751;28;20053;-61
2023/09/12 08:08:34;;;;;;;31.40;19.23;;;23.60;59.40;;;;;;4979731;28;20084;-61
2023/09/12 08:11:02;;;;;;;32.88;22.65;;;23.60;59.40;;;;;;4982519;28;20058;-59
2023/09/12 08:13:30;;;;;;;34.28;22.73;;;23.70;59.50;;;;;;4982262;28;20588;-60
2023/09/12 08:15:59;;;;;;;34.25;24.45;;;23.70;59.60;;;;;;4979393;28;20136;-58
2023/09/12 08:18:29;;;;;;;38.28;24.38;;;23.70;59.50;;;;;;4981339;28;20061;-61
2023/09/12 08:20:58;;;;;;;29.75;20.08;;;23.80;59.40;;;;;;4979801;28;20050;-62
2023/09/12 08:23:25;;;;;;;32.45;22.05;;;23.80;59.20;;;;;;4981880;28;20418;-62
2023/09/12 08:25:52;;;;;;;33.35;23.80;;;23.80;59.00;;;;;;4980262;28;20058;-61
2023/09/12 08:28:20;;;;;;;31.63;22.25;;;23.90;58.80;;;;;;4981937;28;20062;-59
2023/09/12 08:30:47;;;;;;;30.80;21.38;;;23.90;58.80;;;;;;4979401;28;20058;-57
2023/09/12 08:33:14;;;;;;;31.75;21.83;;;23.90;58.80;;;;;;4982903;28;20050;-58
2023/09/12 08:35:41;;;;;;;30.52;20.38;;;23.90;58.90;;;;;;4978037;28;20078;-61
2023/09/12 08:38:11;;;;;;;26.42;19.38;;;23.90;58.90;;;;;;4981029;28;20058;-59
2023/09/12 08:40:38;;;;;;;25.80;18.67;;;24.00;58.90;;;;;;4979438;28;20398;-58
2023/09/12 08:43:06;;;;;;;28.13;19.70;;;24.00;58.90;;;;;;4979278;28;20043;-61
2023/09/12 08:45:33;;;;;;;34.78;22.83;;;24.00;58.90;;;;;;4981077;28;20054;-61
2023/09/12 08:48:02;;;;;;;33.70;22.70;;;24.10;58.90;;;;;;4981005;28;20054;-62
2023/09/12 08:50:32;;;;;;;32.75;23.02;;;24.10;58.70;;;;;;4980344;28;20506;-62
2023/09/12 08:53:00;;;;;;;40.63;25.98;;;24.10;58.70;;;;;;4980439;28;20053;-62
2023/09/12 08:55:29;;;;;;;32.42;23.48;;;24.10;58.60;;;;;;4979133;28;20066;-62
2023/09/12 08:57:58;;;;;;;37.92;23.88;;;24.10;58.70;;;;;;4981321;28;21506;-61
2023/09/12 09:00:26;;;;;;;32.45;20.52;;;24.10;58.70;;;;;;4979120;28;20073;-57
2023/09/12 09:02:54;;;;;;;38.00;25.08;;;24.10;58.80;;;;;;4981944;28;20057;-62
2023/09/12 09:05:23;;;;;;;32.95;25.13;;;24.00;58.90;;;;;;4977209;28;20058;-60
2023/09/12 09:07:52;;;;;;;31.75;21.50;;;24.00;58.90;;;;;;4976474;28;20282;-61
2023/09/12 09:10:20;;;;;;;33.45;21.10;;;24.00;59.10;;;;;;4983023;28;20501;-60
2023/09/12 09:12:49;;;;;;;43.47;25.88;;;24.00;59.20;;;;;;4983767;28;20235;-58
2023/09/12 09:15:23;;;;;;;34.50;22.98;;;24.10;59.10;;;;;;4984405;28;20065;-61
2023/09/12 09:17:52;;;;;;;37.20;25.73;;;24.00;59.10;;;;;;4980168;28;20062;-61
2023/09/12 09:20:30;;;;;;;32.25;22.13;;;24.10;59.00;;;;;;4982007;28;20062;-62
2023/09/12 09:23:00;;;;;;;30.38;21.83;;;24.10;59.00;;;;;;4981331;28;20054;-60
2023/09/12 09:25:27;;;;;;;34.35;23.70;;;24.10;59.10;;;;;;4984338;28;20061;-61
2023/09/12 09:27:56;;;;;;;38.22;25.23;;;24.10;59.10;;;;;;4981296;28;20513;-61
2023/09/12 09:30:41;;;;;;;36.35;26.60;;;24.20;59.00;;;;;;4985108;28;20506;-58
2023/09/12 09:33:08;;;;;;;40.35;26.67;;;24.20;58.90;;;;;;4985223;28;20058;-61
2023/09/12 09:35:36;;;;;;;33.08;22.80;;;24.20;58.90;;;;;;4983081;28;20061;-58
2023/09/12 09:38:05;;;;;;;28.83;20.70;;;24.20;59.00;;;;;;4983871;28;20065;-60
2023/09/12 09:40:34;;;;;;;38.13;24.98;;;24.10;59.10;;;;;;4982951;28;20498;-61
2023/09/12 09:43:04;;;;;;;42.63;27.58;;;24.20;59.30;;;;;;4982923;28;20058;-61
2023/09/12 09:45:32;;;;;;;36.13;27.45;;;24.20;59.20;;;;;;4985209;28;20058;-62
2023/09/12 09:48:00;;;;;;;37.60;26.63;;;24.20;59.20;;;;;;4985063;28;20050;-63
2023/09/12 09:50:28;;;;;;;39.13;27.33;;;24.20;59.00;;;;;;4980724;28;20066;-62
2023/09/12 09:52:57;;;;;;;37.92;25.88;;;24.20;59.20;;;;;;4984103;28;20058;-59
2023/09/12 09:55:25;;;;;;;37.50;23.08;;;24.10;59.10;;;;;;4974839;28;20054;-62
2023/09/12 09:57:53;;;;;;;42.03;27.02;;;24.20;59.20;;;;;;4978447;28;20046;-59
2023/09/12 10:00:23;;;;;;;45.75;28.48;;;24.20;59.30;;;;;;4980689;28;20061;-60
2023/09/12 10:02:52;;;;;;;42.63;28.25;;;24.20;59.30;;;;;;4978525;28;20057;-62
2023/09/12 10:05:21;;;;;;;40.53;27.20;;;24.20;59.40;;;;;;4977699;28;20058;-64
2023/09/12 10:07:51;;;;;;;42.50;29.83;;;24.20;59.70;;;;;;4977046;28;20439;-63
2023/09/12 10:10:19;;;;;;;37.75;24.83;;;24.20;59.50;;;;;;4981105;28;20515;-61
2023/09/12 10:12:52;;;;;;;39.50;28.42;;;24.20;59.60;;;;;;4980018;28;20061;-64
2023/09/12 10:15:23;;;;;;;38.45;27.88;;;24.20;59.70;;;;;;4981085;28;20054;-64
2023/09/12 10:17:56;;;;;;;45.45;31.02;;;24.20;59.70;;;;;;4979163;28;20051;-65
2023/09/12 10:20:31;;;;;;;48.97;31.98;;;24.20;60.00;;;;;;4978143;28;20506;-62
2023/09/12 10:23:08;;;;;;;41.83;28.10;;;24.20;59.80;;;;;;4980724;28;20057;-66
2023/09/12 10:25:37;;;;;;;38.42;25.67;;;24.20;60.00;;;;;;4980551;28;20057;-64
2023/09/12 10:28:06;;;;;;;37.45;24.60;;;24.10;59.90;;;;;;4981930;28;20061;-63
2023/09/12 10:30:36;;;;;;;35.45;24.20;;;24.20;60.40;;;;;;4982645;28;20426;-60
2023/09/12 10:33:04;;;;;;;40.33;25.63;;;24.20;60.80;;;;;;4979102;28;20055;-59
2023/09/12 10:35:32;;;;;;;58.75;34.47;;;24.30;61.10;;;;;;4976794;28;20065;-64
2023/09/12 10:38:03;;;;;;;50.65;28.38;;;24.30;60.20;;;;;;4979562;28;20054;-64
2023/09/12 10:40:32;;;;;;;47.42;29.10;;;24.40;60.20;;;;;;4964037;28;20054;-63
2023/09/12 10:43:03;;;;;;;40.50;26.92;;;24.40;60.70;;;;;;4981207;28;20057;-64
2023/09/12 10:45:32;;;;;;;42.28;29.75;;;24.50;60.50;;;;;;4980715;28;20488;-65
2023/09/12 10:48:01;;;;;;;51.13;32.10;;;24.50;60.30;;;;;;4980710;28;20483;-65
2023/09/12 10:50:29;;;;;;;42.92;29.25;;;24.60;60.00;;;;;;4980990;28;20054;-66
2023/09/12 10:53:08;;;;;;;42.80;28.30;;;24.70;60.40;;;;;;4977507;28;20042;-63
2023/09/12 10:55:36;;;;;;;39.95;25.25;;;24.70;59.90;;;;;;4979571;28;20077;-61
2023/09/12 10:58:05;;;;;;;37.85;26.42;;;24.80;59.90;;;;;;4979271;28;20050;-62
2023/09/12 11:00:34;;;;;;;42.17;28.63;;;24.80;59.50;;;;;;4977719;28;20596;-64
2023/09/12 11:03:38;;;;;;;37.10;25.67;;;24.90;59.60;;;;;;4979880;28;20067;-64
2023/09/12 11:06:06;;;;;;;33.47;23.48;;;24.90;59.30;;;;;;4975891;28;20057;-62
2023/09/12 11:08:37;;;;;;;35.33;21.90;;;25.00;59.20;;;;;;4979224;28;20410;-63
2023/09/12 11:11:20;;;;;;;26.25;18.98;;;25.00;59.30;;;;;;4981097;28;20103;-62
2023/09/12 11:14:03;;;;;;;28.65;20.15;;;25.10;59.40;;;;;;4981566;28;20056;-60
2023/09/12 11:16:30;;;;;;;30.60;21.65;;;25.20;59.40;;;;;;4977652;28;20047;-64
2023/09/12 11:19:18;;;;;;;26.83;17.90;;;25.20;59.10;;;;;;4979902;28;20422;-61
2023/09/12 11:21:46;;;;;;;31.10;19.75;;;25.30;59.40;;;;;;4981607;28;20430;-62
2023/09/12 11:24:14;;;;;;;29.60;18.80;;;25.30;59.10;;;;;;4979458;28;20418;-69
2023/09/12 11:26:55;;;;;;;33.92;18.98;;;25.40;58.20;;;;;;4974230;28;20082;-65
2023/09/12 11:29:23;;;;;;;28.30;19.13;;;25.40;58.00;;;;;;4981081;28;20057;-61
2023/09/12 11:31:57;;;;;;;22.65;16.52;;;25.40;57.70;;;;;;4979197;28;20069;-63
2023/09/12 11:34:28;;;;;;;22.30;16.50;;;25.50;57.60;;;;;;4978703;28;20053;-63
2023/09/12 11:37:00;;;;;;;20.33;15.48;;;25.50;57.30;;;;;;4977057;28;20479;-61
2023/09/12 11:39:30;;;;;;;22.55;15.82;;;25.50;57.90;;;;;;4979581;28;20046;-61
2023/09/12 11:41:58;;;;;;;25.60;18.85;;;25.50;57.70;;;;;;4978901;28;20534;-66
2023/09/12 11:44:26;;;;;;;21.35;15.63;;;25.60;57.30;;;;;;4979958;28;20422;-64
2023/09/12 11:46:54;;;;;;;31.95;17.88;;;25.60;57.80;;;;;;4980348;28;20062;-66
2023/09/12 11:49:22;;;;;;;20.05;15.20;;;25.70;57.50;;;;;;4980396;28;20517;-59
2023/09/12 11:52:13;;;;;;;22.92;13.55;;;25.70;57.60;;;;;;4930961;28;20056;-64
2023/09/12 11:54:41;;;;;;;22.90;13.45;;;25.80;57.80;;;;;;4979413;28;20050;-65
2023/09/12 11:57:10;;;;;;;26.77;16.35;;;25.90;58.20;;;;;;4980213;28;20058;-65
2023/09/12 11:59:40;;;;;;;21.45;14.68;;;26.00;57.20;;;;;;4977791;28;20057;-67
2023/09/12 12:02:09;;;;;;;24.02;15.23;;;26.00;57.20;;;;;;4977679;28;20135;-59
2023/09/12 12:04:37;;;;;;;20.38;14.18;;;26.10;57.10;;;;;;4977314;28;20042;-65
2023/09/12 12:07:05;;;;;;;20.42;13.25;;;26.10;56.70;;;;;;4977531;28;20517;-68
2023/09/12 12:09:34;;;;;;;23.08;12.95;;;26.20;56.70;;;;;;4980056;28;20054;-65
2023/09/12 12:12:09;;;;;;;22.35;14.98;;;26.30;56.20;;;;;;4980704;28;20061;-67
2023/09/12 12:14:36;;;;;;;24.73;14.15;;;26.30;55.90;;;;;;4980079;28;20050;-63
2023/09/12 12:17:08;;;;;;;20.60;12.88;;;26.30;55.80;;;;;;4978076;28;20509;-63
2023/09/12 12:19:36;;;;;;;17.33;11.38;;;26.30;55.70;;;;;;4979791;28;20398;-67
2023/09/12 12:22:05;;;;;;;13.55;10.57;;;26.30;55.50;;;;;;4979158;28;20065;-62
2023/09/12 12:24:40;;;;;;;19.27;12.10;;;26.30;55.90;;;;;;4978857;28;20057;-61
2023/09/12 12:27:09;;;;;;;15.13;10.02;;;26.40;55.60;;;;;;4981007;28;20061;-64
2023/09/12 12:29:39;;;;;;;13.50;10.10;;;26.40;55.70;;;;;;4977474;28;20054;-67
2023/09/12 12:32:08;;;;;;;13.88;9.85;;;26.40;55.50;;;;;;4977961;28;20054;-63
2023/09/12 12:34:36;;;;;;;21.73;9.20;;;26.50;55.60;;;;;;4979309;28;20516;-66
2023/09/12 12:37:04;;;;;;;15.23;11.25;;;26.50;55.80;;;;;;4977315;28;20833;-66
2023/09/12 12:39:33;;;;;;;13.55;10.30;;;26.50;54.90;;;;;;4978472;28;20055;-66
2023/09/12 12:42:03;;;;;;;12.90;9.15;;;26.60;55.20;;;;;;4976976;28;20508;-66
2023/09/12 12:44:40;;;;;;;15.02;9.57;;;26.60;55.40;;;;;;4981213;28;20494;-67
2023/09/12 12:47:09;;;;;;;18.65;10.13;;;26.60;55.60;;;;;;4983219;28;20062;-67
2023/09/12 12:49:40;;;;;;;12.98;9.38;;;26.70;55.40;;;;;;4978552;28;20051;-66
2023/09/12 12:52:10;;;;;;;13.50;9.57;;;26.70;55.30;;;;;;4980066;28;20077;-66